Time;durP1;ratioP1;P1;durP2;ratioP2;P2;SDS_P1;SDS_P2;PMS_P1;PMS_P2;Temp;Humidity;BMP_temperature;BMP_pressure;BME280_temperature;BME280_humidity;BME280_pressure;Samples;Min_cycle;Max_cycle;Signal;HPM_P1;HPM_P2
2023/07/10 00:00:04;;;;;;;6.70;3.20;;;24.40;99.90;;;;;;4163269;28;20063;-59
2023/07/10 00:02:08;;;;;;;;;;;24.40;99.90;;;;;;4162921;28;20106;-59
2023/07/10 00:04:17;;;;;;;4.57;3.00;;;24.40;99.90;;;;;;4161718;28;19925;-59
2023/07/10 00:06:18;;;;;;;13.20;3.80;;;24.30;99.90;;;;;;4159446;28;20519;-60
2023/07/10 00:08:19;;;;;;;6.72;3.08;;;24.30;99.90;;;;;;4159386;28;20047;-59
2023/07/10 00:10:20;;;;;;;5.18;3.78;;;24.30;99.90;;;;;;4162452;28;20060;-59
2023/07/10 00:12:22;;;;;;;5.10;3.28;;;24.10;99.90;;;;;;4161894;28;20045;-59
2023/07/10 00:14:24;;;;;;;5.32;3.83;;;24.10;99.90;;;;;;4162686;28;20041;-59
2023/07/10 00:16:26;;;;;;;7.60;4.97;;;24.00;99.90;;;;;;4161828;28;20067;-59
2023/07/10 00:18:27;;;;;;;11.77;5.85;;;23.90;99.90;;;;;;4157891;28;20051;-59
2023/07/10 00:20:28;;;;;;;8.25;5.45;;;23.90;99.90;;;;;;4159626;28;20038;-59
2023/07/10 00:22:28;;;;;;;11.27;6.10;;;23.80;99.90;;;;;;4160086;28;20049;-58
2023/07/10 00:24:29;;;;;;;11.20;5.75;;;23.70;99.90;;;;;;4156793;28;20048;-59
2023/07/10 00:26:30;;;;;;;8.27;5.50;;;23.60;99.90;;;;;;4158363;28;20108;-59
2023/07/10 00:28:30;;;;;;;8.73;5.00;;;23.50;99.90;;;;;;4158013;28;20040;-59
2023/07/10 00:30:32;;;;;;;7.82;6.03;;;23.40;99.90;;;;;;4159821;28;20120;-59
2023/07/10 00:32:32;;;;;;;8.27;5.60;;;23.40;99.90;;;;;;4160218;28;20036;-59
2023/07/10 00:34:33;;;;;;;8.30;6.05;;;23.30;99.90;;;;;;4164483;28;20033;-59
2023/07/10 00:36:38;;;;;;;12.13;6.70;;;23.30;99.90;;;;;;4175626;28;20032;-59
2023/07/10 00:38:38;;;;;;;9.70;5.45;;;23.20;99.90;;;;;;4162562;28;20048;-63
2023/07/10 00:40:39;;;;;;;9.60;6.93;;;23.20;99.90;;;;;;4158228;28;20034;-60
2023/07/10 00:42:41;;;;;;;8.88;6.38;;;23.10;99.90;;;;;;4164597;28;20108;-59
2023/07/10 00:44:57;;;;;;;9.10;6.30;;;23.00;99.90;;;;;;4166827;28;20066;-59
2023/07/10 00:47:05;;;;;;;8.77;6.25;;;22.90;99.90;;;;;;4170079;28;22313;-59
2023/07/10 00:49:22;;;;;;;11.65;7.15;;;22.90;99.90;;;;;;4167897;28;20499;-59
2023/07/10 00:51:37;;;;;;;8.27;5.95;;;22.90;99.90;;;;;;4179727;28;20046;-59
2023/07/10 00:53:41;;;;;;;10.15;6.70;;;22.90;99.90;;;;;;4177723;28;20857;-59
2023/07/10 00:55:43;;;;;;;14.88;9.00;;;22.90;99.90;;;;;;4165581;28;20391;-59
2023/07/10 00:57:48;;;;;;;12.48;8.45;;;22.70;99.90;;;;;;4164516;28;20381;-59
2023/07/10 00:59:50;;;;;;;10.10;7.65;;;22.60;99.90;;;;;;4164950;28;20055;-59
2023/07/10 01:02:20;;;;;;;14.52;7.82;;;22.60;99.90;;;;;;4165871;28;20496;-59
2023/07/10 01:04:21;;;;;;;10.77;7.32;;;22.60;99.90;;;;;;4147829;28;20124;-59
2023/07/10 01:06:27;;;;;;;9.43;6.40;;;22.50;99.90;;;;;;4179723;28;20114;-59
2023/07/10 01:08:29;;;;;;;12.70;7.72;;;22.60;99.90;;;;;;4178303;28;20535;-59
2023/07/10 01:10:30;;;;;;;9.65;5.72;;;22.60;99.90;;;;;;4181743;28;20580;-59
2023/07/10 01:12:31;;;;;;;8.13;5.72;;;22.60;99.90;;;;;;4181663;28;20040;-59
2023/07/10 01:14:34;;;;;;;10.70;6.80;;;22.60;99.90;;;;;;4179776;28;20040;-59
2023/07/10 01:16:35;;;;;;;7.50;5.40;;;22.70;99.90;;;;;;4184410;28;20570;-59
2023/07/10 01:18:38;;;;;;;12.18;7.88;;;22.70;99.90;;;;;;4180870;28;20495;-59
2023/07/10 01:20:44;;;;;;;11.85;7.50;;;22.70;99.90;;;;;;4163806;28;20029;-59
2023/07/10 01:22:45;;;;;;;10.18;5.72;;;22.70;99.90;;;;;;4161052;28;20055;-59
2023/07/10 01:24:51;;;;;;;8.00;6.07;;;22.80;99.90;;;;;;4181513;28;20049;-59
2023/07/10 01:26:55;;;;;;;9.48;6.32;;;22.80;99.90;;;;;;4163617;28;20132;-58
2023/07/10 01:28:57;;;;;;;8.73;6.18;;;22.90;99.90;;;;;;4180152;28;20067;-59
2023/07/10 01:30:58;;;;;;;;;;;22.90;99.90;;;;;;4180357;28;20424;-59
2023/07/10 01:32:59;;;;;;;7.63;5.75;;;22.90;99.90;;;;;;4178137;28;19908;-59
2023/07/10 01:35:03;;;;;;;10.63;6.32;;;22.90;99.90;;;;;;4179227;28;20381;-59
2023/07/10 01:37:05;;;;;;;12.50;7.38;;;22.90;99.90;;;;;;4178336;28;20032;-59
2023/07/10 01:39:15;;;;;;;13.90;7.37;;;23.00;99.90;;;;;;4179859;28;20045;-59
2023/07/10 01:41:51;;;;;;;9.02;5.80;;;23.00;99.90;;;;;;4179570;28;20277;-59
2023/07/10 01:43:51;;;;;;;8.68;6.28;;;23.00;99.90;;;;;;4174642;28;20100;-59
2023/07/10 01:45:53;;;;;;;8.95;6.13;;;23.00;99.90;;;;;;4178960;28;20041;-59
2023/07/10 01:47:55;;;;;;;7.15;6.03;;;23.00;99.90;;;;;;4162869;28;20393;-59
2023/07/10 01:49:58;;;;;;;10.48;6.47;;;23.10;99.90;;;;;;4181454;28;20535;-59
2023/07/10 01:52:02;;;;;;;7.93;5.75;;;23.10;99.90;;;;;;4176633;28;20036;-59
2023/07/10 01:54:03;;;;;;;9.10;6.25;;;23.10;99.90;;;;;;4177630;28;20037;-59
2023/07/10 01:56:04;;;;;;;12.60;6.72;;;23.10;99.90;;;;;;4175571;28;20044;-59
2023/07/10 01:58:05;;;;;;;11.63;7.70;;;23.20;99.90;;;;;;4176623;28;20047;-59
2023/07/10 02:00:06;;;;;;;13.77;8.18;;;23.20;99.90;;;;;;4173035;28;20029;-59
2023/07/10 02:02:07;;;;;;;12.32;7.63;;;23.20;99.90;;;;;;4176498;28;20132;-59
2023/07/10 02:04:08;;;;;;;10.13;7.22;;;23.10;99.90;;;;;;4177522;28;20116;-59
2023/07/10 02:06:08;;;;;;;10.85;6.95;;;23.10;99.90;;;;;;4180801;28;20032;-60
2023/07/10 02:08:09;;;;;;;10.23;7.20;;;23.10;99.90;;;;;;4178356;28;20029;-59
2023/07/10 02:10:09;;;;;;;9.27;6.13;;;23.10;99.90;;;;;;4179572;28;20074;-59
2023/07/10 02:12:10;;;;;;;9.65;7.03;;;23.10;99.90;;;;;;4180811;28;20035;-59
2023/07/10 02:14:10;;;;;;;12.70;6.72;;;23.10;99.90;;;;;;4180746;28;20095;-59
2023/07/10 02:16:13;;;;;;;7.35;5.57;;;23.00;99.90;;;;;;4179479;28;20048;-59
2023/07/10 02:18:13;;;;;;;8.63;5.93;;;23.00;99.90;;;;;;4177010;28;20032;-60
2023/07/10 02:20:14;;;;;;;9.43;5.93;;;23.10;99.90;;;;;;4175354;28;20483;-59
2023/07/10 02:22:15;;;;;;;15.55;6.43;;;23.10;99.90;;;;;;4178805;28;20437;-59
2023/07/10 02:24:15;;;;;;;10.40;7.03;;;23.10;99.90;;;;;;4178309;28;20058;-60
2023/07/10 02:26:17;;;;;;;11.25;8.02;;;23.10;99.90;;;;;;4177256;28;20040;-59
2023/07/10 02:28:17;;;;;;;11.70;8.32;;;23.10;99.90;;;;;;4182994;28;20048;-60
2023/07/10 02:30:18;;;;;;;13.60;8.07;;;23.10;99.90;;;;;;4177054;28;20045;-59
2023/07/10 02:32:19;;;;;;;11.77;6.13;;;23.10;99.90;;;;;;4180931;28;20549;-59
2023/07/10 02:34:19;;;;;;;10.32;6.63;;;23.10;99.90;;;;;;4138732;28;1218273;-59
2023/07/10 02:36:22;;;;;;;11.77;7.28;;;23.10;99.90;;;;;;4177475;28;20117;-60
2023/07/10 02:38:22;;;;;;;10.68;6.68;;;23.10;99.90;;;;;;4181764;28;20555;-59
2023/07/10 02:40:23;;;;;;;14.48;7.68;;;23.10;99.90;;;;;;4179893;28;20097;-59
2023/07/10 02:42:23;;;;;;;16.02;10.05;;;23.10;99.90;;;;;;4179597;28;20063;-59
2023/07/10 02:44:24;;;;;;;11.75;8.50;;;23.00;99.90;;;;;;4183116;28;20051;-59
2023/07/10 02:46:25;;;;;;;13.57;7.95;;;23.00;99.90;;;;;;4180592;28;20036;-59
2023/07/10 02:48:25;;;;;;;13.13;9.23;;;23.00;99.90;;;;;;4181465;28;20109;-59
2023/07/10 02:50:26;;;;;;;12.98;9.07;;;22.90;99.90;;;;;;4176803;28;20515;-59
2023/07/10 02:52:27;;;;;;;10.02;7.45;;;22.90;99.90;;;;;;4179127;28;20041;-59
2023/07/10 02:54:27;;;;;;;10.88;8.25;;;22.90;99.90;;;;;;4182020;28;20047;-59
2023/07/10 02:56:28;;;;;;;14.65;9.88;;;22.90;99.90;;;;;;4177837;28;20036;-59
2023/07/10 02:58:28;;;;;;;12.90;9.77;;;22.90;99.90;;;;;;4180235;28;20102;-59
2023/07/10 03:00:29;;;;;;;16.63;10.18;;;22.80;99.90;;;;;;4179877;28;20127;-59
2023/07/10 03:02:30;;;;;;;13.00;10.05;;;22.80;99.90;;;;;;4180395;28;20488;-59
2023/07/10 03:04:30;;;;;;;12.13;9.68;;;22.70;99.90;;;;;;4177217;28;20056;-59
2023/07/10 03:06:31;;;;;;;15.50;10.13;;;22.70;99.90;;;;;;4177306;28;20033;-59
2023/07/10 03:08:32;;;;;;;14.20;9.85;;;22.70;99.90;;;;;;4161513;28;20045;-59
2023/07/10 03:10:32;;;;;;;14.93;10.55;;;22.70;99.90;;;;;;4180721;28;20220;-59
2023/07/10 03:12:33;;;;;;;12.60;9.13;;;22.70;99.90;;;;;;4182319;28;20028;-59
2023/07/10 03:14:34;;;;;;;14.00;10.80;;;22.70;99.90;;;;;;4179561;28;20111;-59
2023/07/10 03:16:35;;;;;;;13.25;9.73;;;22.70;99.90;;;;;;4183306;28;20064;-59
2023/07/10 03:18:36;;;;;;;16.88;9.95;;;22.60;99.90;;;;;;4176327;28;20040;-59
2023/07/10 03:20:39;;;;;;;16.65;11.95;;;22.60;99.90;;;;;;4179976;28;20036;-59
2023/07/10 03:22:40;;;;;;;16.15;10.90;;;22.60;99.90;;;;;;4179156;28;20504;-59
2023/07/10 03:24:40;;;;;;;17.08;10.30;;;22.60;99.90;;;;;;4182919;28;20116;-59
2023/07/10 03:26:41;;;;;;;17.92;11.68;;;22.50;99.90;;;;;;4176852;28;20055;-59
2023/07/10 03:28:42;;;;;;;15.13;10.15;;;22.50;99.90;;;;;;4175777;28;20029;-59
2023/07/10 03:30:42;;;;;;;10.93;8.15;;;22.50;99.90;;;;;;4178729;28;20036;-59
2023/07/10 03:32:43;;;;;;;14.65;10.63;;;22.50;99.90;;;;;;4180082;28;20508;-59
2023/07/10 03:34:43;;;;;;;14.15;10.20;;;22.40;99.90;;;;;;4180080;28;20057;-59
2023/07/10 03:36:45;;;;;;;13.32;9.15;;;22.50;99.90;;;;;;4181918;28;20544;-59
2023/07/10 03:38:45;;;;;;;17.65;11.07;;;22.50;99.90;;;;;;4179630;28;20060;-59
2023/07/10 03:40:53;;;;;;;15.70;11.00;;;22.40;99.90;;;;;;4177872;28;20063;-59
2023/07/10 03:42:54;;;;;;;14.88;9.48;;;22.40;99.90;;;;;;4176498;28;20044;-59
2023/07/10 03:44:55;;;;;;;17.20;11.60;;;22.40;99.90;;;;;;4179434;28;20506;-59
2023/07/10 03:46:56;;;;;;;12.70;8.75;;;22.40;99.90;;;;;;4179157;28;20522;-59
2023/07/10 03:48:57;;;;;;;16.40;10.88;;;22.40;99.90;;;;;;4176150;28;20047;-59
2023/07/10 03:50:58;;;;;;;20.60;11.02;;;22.30;99.90;;;;;;4175068;28;20029;-59
2023/07/10 03:52:58;;;;;;;20.70;11.10;;;22.20;99.90;;;;;;4179112;28;20037;-59
2023/07/10 03:54:59;;;;;;;19.08;11.85;;;22.20;99.90;;;;;;4179646;28;20056;-59
2023/07/10 03:57:00;;;;;;;14.43;10.10;;;22.10;99.90;;;;;;4175972;28;20041;-59
2023/07/10 03:59:01;;;;;;;14.23;9.30;;;22.20;99.90;;;;;;4176840;28;20057;-59
2023/07/10 04:01:02;;;;;;;14.13;10.20;;;22.10;99.90;;;;;;4177705;28;20391;-59
2023/07/10 04:03:02;;;;;;;15.27;10.52;;;22.10;99.90;;;;;;4180848;28;20831;-59
2023/07/10 04:05:03;;;;;;;13.73;8.88;;;22.00;99.90;;;;;;4175668;28;20047;-61
2023/07/10 04:07:04;;;;;;;13.25;8.75;;;22.00;99.90;;;;;;4175202;28;20068;-59
2023/07/10 04:09:05;;;;;;;13.80;9.75;;;22.00;99.90;;;;;;4174281;28;20053;-59
2023/07/10 04:11:21;;;;;;;14.82;9.18;;;22.10;99.90;;;;;;4174766;28;20029;-59
2023/07/10 04:13:22;;;;;;;14.88;9.13;;;22.10;99.90;;;;;;4172336;28;20446;-61
2023/07/10 04:15:22;;;;;;;12.07;8.52;;;22.10;99.90;;;;;;4175607;28;20132;-59
2023/07/10 04:17:23;;;;;;;11.75;8.45;;;22.10;99.90;;;;;;4174792;28;20533;-60
2023/07/10 04:19:23;;;;;;;14.15;8.80;;;22.10;99.90;;;;;;4174442;28;20391;-59
2023/07/10 04:21:27;;;;;;;16.23;9.02;;;22.20;99.90;;;;;;4174939;28;20446;-60
2023/07/10 04:23:28;;;;;;;13.70;7.68;;;22.20;99.90;;;;;;4176453;28;20025;-59
2023/07/10 04:25:29;;;;;;;12.75;7.97;;;22.20;99.90;;;;;;4177781;28;20040;-59
2023/07/10 04:27:30;;;;;;;18.15;9.05;;;22.30;99.90;;;;;;4173060;28;20028;-59
2023/07/10 04:29:30;;;;;;;9.85;7.60;;;22.20;99.90;;;;;;4175118;28;20044;-59
2023/07/10 04:31:32;;;;;;;12.88;7.72;;;22.30;99.90;;;;;;4180802;28;20053;-59
2023/07/10 04:33:32;;;;;;;11.87;7.93;;;22.30;99.90;;;;;;4178611;28;20034;-59
2023/07/10 04:35:33;;;;;;;11.27;7.10;;;22.40;99.90;;;;;;4178686;28;20045;-59
2023/07/10 04:37:34;;;;;;;9.27;7.47;;;22.40;99.90;;;;;;4178735;28;20159;-59
2023/07/10 04:39:34;;;;;;;11.27;7.88;;;22.40;99.90;;;;;;4178058;28;20037;-59
2023/07/10 04:41:37;;;;;;;12.38;8.00;;;22.40;99.90;;;;;;4178588;28;20024;-59
2023/07/10 04:43:38;;;;;;;14.98;9.07;;;22.50;99.90;;;;;;4180835;28;20086;-62
2023/07/10 04:45:38;;;;;;;11.63;6.97;;;22.50;99.90;;;;;;4181589;28;20419;-61
2023/07/10 04:47:39;;;;;;;11.65;7.93;;;22.50;99.90;;;;;;4177994;28;20060;-61
2023/07/10 04:49:40;;;;;;;10.27;7.43;;;22.40;99.90;;;;;;4163429;28;20029;-61
2023/07/10 04:51:40;;;;;;;10.52;6.82;;;22.50;99.90;;;;;;4178372;28;20029;-61
2023/07/10 04:53:41;;;;;;;15.00;8.57;;;22.50;99.90;;;;;;4181546;28;20043;-61
2023/07/10 04:55:43;;;;;;;11.23;7.35;;;22.50;99.90;;;;;;4176258;28;20560;-61
2023/07/10 04:57:43;;;;;;;14.00;8.82;;;22.50;99.90;;;;;;4180484;28;20037;-61
2023/07/10 04:59:45;;;;;;;11.82;7.20;;;22.40;99.90;;;;;;4175980;28;20037;-61
2023/07/10 05:01:46;;;;;;;7.97;6.35;;;22.40;99.90;;;;;;4178369;28;20044;-61
2023/07/10 05:03:46;;;;;;;10.32;6.68;;;22.40;99.90;;;;;;4176620;28;20051;-61
2023/07/10 05:06:05;;;;;;;9.35;6.90;;;22.50;99.90;;;;;;4176757;28;20079;-63
2023/07/10 05:08:06;;;;;;;10.63;6.53;;;22.50;99.90;;;;;;4177508;28;20036;-61
2023/07/10 05:10:06;;;;;;;11.80;7.68;;;22.50;99.90;;;;;;4177916;28;20037;-62
2023/07/10 05:12:07;;;;;;;10.05;7.53;;;22.50;99.90;;;;;;4178454;28;20135;-61
2023/07/10 05:14:08;;;;;;;9.27;7.30;;;22.50;99.90;;;;;;4179504;28;20037;-61
2023/07/10 05:16:08;;;;;;;8.63;6.57;;;22.50;99.90;;;;;;4163589;28;20076;-61
2023/07/10 05:18:09;;;;;;;14.32;8.10;;;22.50;99.90;;;;;;4177143;28;20048;-61
2023/07/10 05:20:10;;;;;;;11.38;8.13;;;22.50;99.90;;;;;;4158270;28;20784;-62
2023/07/10 05:22:11;;;;;;;9.50;7.20;;;22.50;99.90;;;;;;4150132;28;20045;-61
2023/07/10 05:24:11;;;;;;;12.43;7.53;;;22.50;99.90;;;;;;4149418;28;20451;-61
2023/07/10 05:26:15;;;;;;;11.52;8.43;;;22.50;99.90;;;;;;4149882;28;23081;-61
2023/07/10 05:28:16;;;;;;;11.77;8.23;;;22.40;99.90;;;;;;4152319;28;20095;-61
2023/07/10 05:30:17;;;;;;;14.02;8.57;;;22.40;99.90;;;;;;4140241;28;20037;-62
2023/07/10 05:32:17;;;;;;;10.85;7.60;;;22.30;99.90;;;;;;4147889;28;20057;-61
2023/07/10 05:34:22;;;;;;;14.98;8.65;;;22.30;99.90;;;;;;4139777;28;20622;-62
2023/07/10 05:36:23;;;;;;;14.82;9.60;;;22.30;99.90;;;;;;4142511;28;20049;-64
2023/07/10 05:38:27;;;;;;;12.27;7.88;;;22.30;99.90;;;;;;4145154;28;20041;-62
2023/07/10 05:40:28;;;;;;;16.05;8.25;;;22.30;99.90;;;;;;4146036;28;20356;-61
2023/07/10 05:42:28;;;;;;;12.57;7.78;;;22.30;99.90;;;;;;4148212;28;20060;-61
2023/07/10 05:44:29;;;;;;;10.60;7.60;;;22.30;99.90;;;;;;4146611;28;20110;-61
2023/07/10 05:46:30;;;;;;;12.07;7.28;;;22.30;99.90;;;;;;4149573;28;20037;-61
2023/07/10 05:48:31;;;;;;;10.35;7.47;;;22.30;99.90;;;;;;4148465;28;20147;-61
2023/07/10 05:50:32;;;;;;;11.93;6.70;;;22.20;99.90;;;;;;4148848;28;20438;-61
2023/07/10 05:52:32;;;;;;;10.93;6.50;;;22.30;99.90;;;;;;4149833;28;20047;-62
2023/07/10 05:54:33;;;;;;;10.18;7.43;;;22.30;99.90;;;;;;4157351;28;20051;-61
2023/07/10 05:56:34;;;;;;;8.77;6.20;;;22.30;99.90;;;;;;4167274;28;20460;-61
2023/07/10 05:58:40;;;;;;;9.82;7.35;;;22.30;99.90;;;;;;4168917;28;20037;-62
2023/07/10 06:00:42;;;;;;;10.35;6.55;;;22.30;99.90;;;;;;4161246;28;20385;-61
2023/07/10 06:02:42;;;;;;;10.40;6.82;;;22.30;99.90;;;;;;4156541;28;20427;-61
2023/07/10 06:04:43;;;;;;;14.05;7.47;;;22.30;99.90;;;;;;4139451;28;20549;-61
2023/07/10 06:06:44;;;;;;;8.30;6.03;;;22.20;99.90;;;;;;4157572;28;20842;-61
2023/07/10 06:08:45;;;;;;;7.40;4.68;;;22.20;99.90;;;;;;4154525;28;20271;-62
2023/07/10 06:10:46;;;;;;;11.07;5.57;;;22.10;99.90;;;;;;4156526;28;20438;-61
2023/07/10 06:12:46;;;;;;;7.80;4.68;;;22.10;99.90;;;;;;4153336;28;20313;-61
2023/07/10 06:14:47;;;;;;;10.70;4.68;;;22.20;99.90;;;;;;4157733;28;20043;-61
2023/07/10 06:16:47;;;;;;;9.57;5.55;;;22.20;99.90;;;;;;4152142;28;20040;-61
2023/07/10 06:18:48;;;;;;;6.10;4.32;;;22.30;99.90;;;;;;4157306;28;20044;-62
2023/07/10 06:20:59;;;;;;;9.13;4.65;;;22.20;99.90;;;;;;4155554;28;20144;-62
2023/07/10 06:22:59;;;;;;;7.18;3.97;;;22.20;99.90;;;;;;4152051;28;20328;-61
2023/07/10 06:25:00;;;;;;;5.40;3.70;;;22.30;99.90;;;;;;4153647;28;20391;-61
2023/07/10 06:27:02;;;;;;;6.80;3.95;;;22.40;99.90;;;;;;4142383;28;20601;-61
2023/07/10 06:29:03;;;;;;;4.63;3.92;;;22.50;99.90;;;;;;4134612;28;20061;-61
2023/07/10 06:31:09;;;;;;;7.55;5.32;;;22.60;99.90;;;;;;4150684;28;20524;-61
2023/07/10 06:33:10;;;;;;;5.72;3.75;;;22.60;99.90;;;;;;4160596;28;20028;-62
2023/07/10 06:35:14;;;;;;;10.85;5.38;;;22.60;99.90;;;;;;4150191;28;20438;-62
2023/07/10 06:37:14;;;;;;;7.63;4.65;;;22.70;99.90;;;;;;4156612;28;20252;-61
2023/07/10 06:39:15;;;;;;;7.43;4.45;;;22.70;99.90;;;;;;4148176;28;20084;-62
2023/07/10 06:41:15;;;;;;;7.85;4.30;;;22.70;99.90;;;;;;4148918;28;20123;-62
2023/07/10 06:43:18;;;;;;;7.30;4.07;;;22.60;99.90;;;;;;4152098;28;20415;-61
2023/07/10 06:45:18;;;;;;;9.63;4.43;;;22.70;99.90;;;;;;4149169;28;20044;-61
2023/07/10 06:47:19;;;;;;;8.43;4.75;;;22.70;99.90;;;;;;4132653;28;20564;-65
2023/07/10 06:49:19;;;;;;;6.15;3.95;;;22.70;99.90;;;;;;4151184;28;20571;-62
2023/07/10 06:51:20;;;;;;;6.47;3.70;;;22.80;99.90;;;;;;4151934;28;20044;-62
2023/07/10 06:53:22;;;;;;;7.80;4.38;;;22.80;99.90;;;;;;4147656;28;20172;-62
2023/07/10 06:55:23;;;;;;;7.85;4.40;;;22.90;99.90;;;;;;4154972;28;20059;-61
2023/07/10 06:57:23;;;;;;;7.80;4.65;;;23.00;99.90;;;;;;4151747;28;20037;-61
2023/07/10 06:59:24;;;;;;;7.22;3.63;;;23.10;99.90;;;;;;4151635;28;20060;-61
2023/07/10 07:01:25;;;;;;;8.10;3.55;;;23.10;99.90;;;;;;4147251;28;20116;-61
2023/07/10 07:03:25;;;;;;;8.30;3.33;;;23.20;99.90;;;;;;4157842;28;20400;-61
2023/07/10 07:05:26;;;;;;;7.10;3.35;;;23.30;99.90;;;;;;4154863;28;20157;-62
2023/07/10 07:07:26;;;;;;;6.18;3.38;;;23.40;99.90;;;;;;4162251;28;20033;-62
2023/07/10 07:09:27;;;;;;;6.35;3.05;;;23.50;99.90;;;;;;4150986;28;20025;-61
2023/07/10 07:11:27;;;;;;;5.05;2.90;;;23.50;99.90;;;;;;4157273;28;20551;-61
2023/07/10 07:13:28;;;;;;;4.45;3.03;;;23.60;99.90;;;;;;4152690;28;20644;-61
2023/07/10 07:15:29;;;;;;;4.97;2.65;;;23.70;99.90;;;;;;4157263;28;20582;-61
2023/07/10 07:17:30;;;;;;;5.53;2.90;;;23.80;99.90;;;;;;4133086;28;20034;-61
2023/07/10 07:19:31;;;;;;;4.90;2.60;;;23.80;99.90;;;;;;4156882;28;20442;-62
2023/07/10 07:21:31;;;;;;;5.68;2.67;;;24.00;99.90;;;;;;4151619;28;20504;-61
2023/07/10 07:23:32;;;;;;;6.10;2.75;;;24.10;99.90;;;;;;4159403;28;20154;-61
2023/07/10 07:25:33;;;;;;;8.73;3.05;;;24.20;99.90;;;;;;4151480;28;20471;-61
2023/07/10 07:27:33;;;;;;;4.25;2.70;;;24.30;99.90;;;;;;4157095;28;20115;-61
2023/07/10 07:29:34;;;;;;;4.40;2.85;;;24.30;99.90;;;;;;4131811;28;20463;-61
2023/07/10 07:31:37;;;;;;;4.35;2.00;;;24.40;99.90;;;;;;4154077;28;20112;-61
2023/07/10 07:33:38;;;;;;;4.05;1.90;;;24.50;99.90;;;;;;4161135;28;20476;-61
2023/07/10 07:35:38;;;;;;;5.35;2.00;;;24.60;99.90;;;;;;4179010;28;20044;-62
2023/07/10 07:37:39;;;;;;;3.10;1.90;;;24.70;99.90;;;;;;4178851;28;20557;-61
2023/07/10 07:39:39;;;;;;;3.53;1.83;;;24.80;99.90;;;;;;4176519;28;20119;-62
2023/07/10 07:41:40;;;;;;;3.47;2.15;;;24.90;99.90;;;;;;4178266;28;20114;-62
2023/07/10 07:43:40;;;;;;;3.75;1.80;;;25.00;99.90;;;;;;4171591;28;20037;-62
2023/07/10 07:45:53;;;;;;;4.75;2.03;;;25.10;99.90;;;;;;4182689;28;20032;-62
2023/07/10 07:47:54;;;;;;;;;;;25.30;99.90;;;;;;4182318;28;20033;-62
2023/07/10 07:49:55;;;;;;;5.20;1.85;;;25.40;99.90;;;;;;4175646;28;19956;-62
2023/07/10 07:51:56;;;;;;;4.15;1.90;;;25.50;99.90;;;;;;4176026;28;20037;-62
2023/07/10 07:54:09;;;;;;;6.03;2.05;;;25.60;99.90;;;;;;4173972;28;20395;-62
2023/07/10 07:56:10;;;;;;;5.40;2.00;;;25.70;99.90;;;;;;4171091;28;20121;-62
2023/07/10 07:58:11;;;;;;;2.70;1.52;;;25.70;99.90;;;;;;4174644;28;20044;-62
2023/07/10 08:00:12;;;;;;;5.78;1.95;;;25.80;99.90;;;;;;4170259;28;20072;-62
2023/07/10 08:02:12;;;;;;;4.50;1.70;;;25.90;99.90;;;;;;4177481;28;20032;-62
2023/07/10 08:04:13;;;;;;;4.18;2.13;;;26.00;99.90;;;;;;4181061;28;20052;-62
2023/07/10 08:06:14;;;;;;;3.25;1.58;;;26.10;99.90;;;;;;4181284;28;20057;-62
2023/07/10 08:08:14;;;;;;;7.68;1.80;;;26.10;99.90;;;;;;4177148;28;20099;-62
2023/07/10 08:10:15;;;;;;;4.40;1.52;;;26.10;99.90;;;;;;4178806;28;20036;-62
2023/07/10 08:12:15;;;;;;;2.85;1.70;;;26.10;99.90;;;;;;4177311;28;20041;-62
2023/07/10 08:14:16;;;;;;;4.90;1.90;;;26.10;99.90;;;;;;4177480;28;20547;-62
2023/07/10 08:16:18;;;;;;;2.00;1.13;;;26.20;99.90;;;;;;4178773;28;20036;-62
2023/07/10 08:18:18;;;;;;;3.97;1.50;;;26.20;99.90;;;;;;4173263;28;20045;-62
2023/07/10 08:20:19;;;;;;;2.25;1.20;;;26.30;99.90;;;;;;4178319;28;20130;-62
2023/07/10 08:22:20;;;;;;;2.85;1.40;;;26.40;99.90;;;;;;4176388;28;20576;-62
2023/07/10 08:24:20;;;;;;;2.00;1.20;;;26.40;99.90;;;;;;4178543;28;20067;-64
2023/07/10 08:26:21;;;;;;;2.70;1.33;;;26.50;99.90;;;;;;4161722;28;20562;-63
2023/07/10 08:28:21;;;;;;;2.55;1.42;;;26.50;99.90;;;;;;4176654;28;20028;-62
2023/07/10 08:30:22;;;;;;;5.05;1.70;;;26.50;99.90;;;;;;4175817;28;20040;-62
2023/07/10 08:32:23;;;;;;;4.88;1.70;;;26.60;99.90;;;;;;4166592;28;20032;-62
2023/07/10 08:34:25;;;;;;;4.15;1.38;;;26.50;99.90;;;;;;4179179;28;20064;-62
2023/07/10 08:36:25;;;;;;;3.92;1.77;;;26.50;99.90;;;;;;4178750;28;20036;-62
2023/07/10 08:38:26;;;;;;;2.05;1.15;;;26.40;99.30;;;;;;4181060;28;20498;-62
2023/07/10 08:40:31;;;;;;;3.35;1.80;;;26.50;99.90;;;;;;4177504;28;20037;-62
2023/07/10 08:42:33;;;;;;;3.60;1.30;;;26.60;99.90;;;;;;4178354;28;20029;-62
2023/07/10 08:44:37;;;;;;;3.83;1.25;;;26.60;99.40;;;;;;4176431;28;20059;-62
2023/07/10 08:46:38;;;;;;;4.25;1.50;;;26.60;99.10;;;;;;4178155;28;20029;-62
2023/07/10 08:49:05;;;;;;;3.33;1.77;;;26.60;99.90;;;;;;4176418;28;20091;-62
2023/07/10 08:51:21;;;;;;;3.45;1.58;;;26.70;99.90;;;;;;4153869;28;20033;-62
2023/07/10 08:53:27;;;;;;;5.05;1.77;;;26.80;99.90;;;;;;4179538;28;20048;-62
2023/07/10 08:55:36;;;;;;;3.55;1.40;;;26.90;99.90;;;;;;4180424;28;20059;-62
2023/07/10 08:57:41;;;;;;;3.58;1.13;;;27.00;99.90;;;;;;4176909;28;20043;-62
2023/07/10 09:00:08;;;;;;;3.65;1.70;;;27.00;98.80;;;;;;4176452;28;20044;-62
2023/07/10 09:02:20;;;;;;;3.40;1.60;;;27.10;99.50;;;;;;4170484;28;20048;-62
2023/07/10 09:04:21;;;;;;;3.42;1.88;;;27.10;98.80;;;;;;4183085;28;20052;-61
2023/07/10 09:06:29;;;;;;;4.82;1.67;;;27.10;98.90;;;;;;4178438;28;20063;-62
2023/07/10 09:08:32;;;;;;;2.63;1.55;;;27.00;97.60;;;;;;4177167;28;20041;-62
2023/07/10 09:10:46;;;;;;;1.98;1.20;;;27.00;98.60;;;;;;4175348;28;20071;-63
2023/07/10 09:12:52;;;;;;;4.50;1.15;;;27.00;99.00;;;;;;4178400;28;20037;-62
2023/07/10 09:14:58;;;;;;;2.17;1.27;;;27.10;97.90;;;;;;4175642;28;20041;-62
2023/07/10 09:17:01;;;;;;;1.73;1.00;;;27.10;96.80;;;;;;4181198;28;20041;-65
2023/07/10 09:19:10;;;;;;;3.45;1.30;;;27.10;97.50;;;;;;4153952;28;20064;-63
2023/07/10 09:21:19;;;;;;;2.67;1.17;;;27.20;98.00;;;;;;4153354;28;20053;-62
2023/07/10 09:23:24;;;;;;;4.30;1.67;;;27.20;96.80;;;;;;4155804;28;20034;-62
2023/07/10 09:25:25;;;;;;;3.80;1.23;;;27.30;98.10;;;;;;4151851;28;20068;-62
2023/07/10 09:27:26;;;;;;;2.17;1.20;;;27.30;97.60;;;;;;4161025;28;20041;-62
2023/07/10 09:29:35;;;;;;;3.17;1.00;;;27.40;97.10;;;;;;4158973;28;20036;-62
2023/07/10 09:31:53;;;;;;;4.43;1.25;;;27.40;97.20;;;;;;4163160;28;20717;-62
2023/07/10 09:34:00;;;;;;;4.25;1.40;;;27.50;96.50;;;;;;4165053;28;20564;-62
2023/07/10 09:36:00;;;;;;;2.90;1.23;;;27.50;96.30;;;;;;4158199;28;20080;-63
2023/07/10 09:38:01;;;;;;;4.65;1.58;;;27.50;96.10;;;;;;4171987;28;20466;-62
2023/07/10 09:40:30;;;;;;;2.15;1.20;;;27.50;97.50;;;;;;4167231;28;20448;-64
2023/07/10 09:42:33;;;;;;;5.88;1.25;;;27.50;97.20;;;;;;4169813;28;20273;-63
2023/07/10 09:44:43;;;;;;;3.53;1.75;;;27.50;97.00;;;;;;4163212;28;20041;-62
2023/07/10 09:46:45;;;;;;;4.82;1.63;;;27.50;96.10;;;;;;4170760;28;20460;-62
2023/07/10 09:48:47;;;;;;;2.75;1.33;;;27.40;95.90;;;;;;4164213;28;20044;-62
2023/07/10 09:50:50;;;;;;;;;;;27.50;96.30;;;;;;4158605;28;20048;-62
2023/07/10 09:52:52;;;;;;;;;;;27.50;96.50;;;;;;4180896;28;20375;-62
2023/07/10 09:55:01;;;;;;;3.95;1.48;;;27.40;95.30;;;;;;4170870;28;19917;-62
2023/07/10 09:57:23;;;;;;;3.92;1.50;;;27.40;96.20;;;;;;4166246;28;20519;-63
2023/07/10 09:59:31;;;;;;;3.28;1.35;;;27.40;95.70;;;;;;4166766;28;20055;-62
2023/07/10 10:01:33;;;;;;;2.90;1.20;;;27.40;96.30;;;;;;4176617;28;20241;-66
2023/07/10 10:03:39;;;;;;;4.22;1.10;;;27.50;96.40;;;;;;4176641;28;20040;-63
2023/07/10 10:05:40;;;;;;;2.58;1.13;;;27.50;96.40;;;;;;4174445;28;20507;-62
2023/07/10 10:07:44;;;;;;;3.27;1.30;;;27.60;96.50;;;;;;4155927;28;20045;-62
2023/07/10 10:09:45;;;;;;;4.53;1.73;;;27.60;94.70;;;;;;4168260;28;20273;-62
2023/07/10 10:11:48;;;;;;;3.35;1.50;;;27.50;95.00;;;;;;4172024;28;20037;-62
2023/07/10 10:13:56;;;;;;;3.35;1.48;;;27.50;95.50;;;;;;4166317;28;20025;-62
2023/07/10 10:16:06;;;;;;;4.97;1.50;;;27.50;95.20;;;;;;4171947;28;20021;-62
2023/07/10 10:18:17;;;;;;;3.88;1.30;;;27.50;96.20;;;;;;4148612;28;20392;-63
2023/07/10 10:20:26;;;;;;;5.20;1.73;;;27.60;95.80;;;;;;4178488;28;20393;-62
2023/07/10 10:22:29;;;;;;;3.53;1.50;;;27.60;95.00;;;;;;4181584;28;20040;-62
2023/07/10 10:24:31;;;;;;;2.67;1.33;;;27.60;95.30;;;;;;4160984;28;20045;-62
2023/07/10 10:27:00;;;;;;;4.90;1.75;;;27.70;95.90;;;;;;4164594;28;20063;-64
2023/07/10 10:29:19;;;;;;;3.20;1.42;;;27.70;96.90;;;;;;4174368;28;20044;-64
2023/07/10 10:31:34;;;;;;;4.95;1.70;;;27.80;97.30;;;;;;4175938;28;20026;-62
2023/07/10 10:33:46;;;;;;;3.05;1.20;;;27.80;96.60;;;;;;4175926;28;20834;-62
2023/07/10 10:36:00;;;;;;;3.15;1.30;;;27.80;97.30;;;;;;4180512;28;20059;-62